| time (UTC) | temp F | wind direction | speed MPH | gust MPH | rain 1hr in | rain 24hr in | rain mn in | humidity % | barometer mb |
| 20260502151618 | 82 | 91 | 0.0 | 0.0 | 0.00 | 0.00 | 0.00 | 24 | 1014.8 |
| 20260502151115 | 81 | 99 | 0.0 | 0.0 | 0.00 | 0.00 | 0.00 | 24 | 1014.8 |
| 20260502150613 | 80 | 70 | 0.0 | 1.0 | 0.00 | 0.00 | 0.00 | 25 | 1014.7 |
| 20260502150109 | 80 | 93 | 0.0 | 0.0 | 0.00 | 0.00 | 0.00 | 26 | 1014.6 |
| 20260502130457 | 71 | 40 | 0.0 | 0.0 | 0.00 | 0.00 | 0.00 | 31 | 1013.3 |
| 20260502123440 | 66 | 58 | 0.0 | 0.0 | 0.00 | 0.00 | 0.00 | 39 | 1013.1 |
| 20260502122937 | 66 | 60 | 0.0 | 0.0 | 0.00 | 0.00 | 0.00 | 43 | 1013.1 |
| 20260502122433 | 66 | 71 | 0.0 | 0.0 | 0.00 | 0.00 | 0.00 | 41 | 1012.9 |
| 20260502121932 | 66 | 39 | 0.0 | 0.0 | 0.00 | 0.00 | 0.00 | 41 | 1012.8 |
| 20260502121428 | 67 | 78 | 0.0 | 0.0 | 0.00 | 0.00 | 0.00 | 42 | 1012.9 |
| 20260502120926 | 67 | 82 | 0.0 | 0.0 | 0.00 | 0.00 | 0.00 | 36 | 1012.5 |
| 20260502120422 | 67 | 80 | 0.0 | 0.0 | 0.00 | 0.00 | 0.00 | 35 | 1012.7 |
| 20260502115919 | 67 | 86 | 0.0 | 0.0 | 0.00 | 0.00 | 0.00 | 35 | 1012.8 |
| 20260502115416 | 66 | 84 | 0.0 | 0.0 | 0.00 | 0.00 | 0.00 | 35 | 1012.8 |
| 20260502114912 | 67 | 90 | 0.0 | 0.0 | 0.00 | 0.00 | 0.00 | 35 | 1012.7 |
| 20260502114409 | 67 | 90 | 0.0 | 0.0 | 0.00 | 0.00 | 0.00 | 35 | 1012.8 |
| 20260502113906 | 67 | 96 | 0.0 | 0.0 | 0.00 | 0.00 | 0.00 | 34 | 1012.5 |
| 20260502113404 | 68 | 101 | 0.0 | 0.0 | 0.00 | 0.00 | 0.00 | 34 | 1012.7 |
| 20260502112902 | 68 | 97 | 0.0 | 0.0 | 0.00 | 0.00 | 0.00 | 35 | 1012.4 |
| 20260502112400 | 68 | 93 | 0.0 | 0.0 | 0.00 | 0.00 | 0.00 | 33 | 1012.2 |
| 20260502111857 | 69 | 84 | 0.0 | 0.0 | 0.00 | 0.00 | 0.00 | 32 | 1012.5 |
| 20260502111354 | 70 | 80 | 0.0 | 0.0 | 0.00 | 0.00 | 0.00 | 32 | 1012.3 |
| 20260502110851 | 71 | 82 | 0.0 | 0.0 | 0.00 | 0.00 | 0.00 | 31 | 1012.3 |
| 20260502110349 | 72 | 79 | 0.0 | 0.0 | 0.00 | 0.00 | 0.00 | 30 | 1012.4 |
| 20260502105846 | 72 | 73 | 0.0 | 0.0 | 0.00 | 0.00 | 0.00 | 29 | 1012.4 |
| 20260502105343 | 73 | 51 | 0.0 | 0.0 | 0.00 | 0.00 | 0.00 | 29 | 1012.5 |
| 20260502104841 | 73 | 44 | 0.0 | 0.0 | 0.00 | 0.00 | 0.00 | 29 | 1012.7 |
| 20260502104338 | 73 | 53 | 0.0 | 0.0 | 0.00 | 0.00 | 0.00 | 28 | 1012.5 |
| 20260502103835 | 73 | 48 | 0.0 | 0.0 | 0.00 | 0.00 | 0.00 | 28 | 1012.3 |
| 20260502103333 | 73 | 54 | 0.0 | 0.0 | 0.00 | 0.00 | 0.00 | 29 | 1012.2 |
| 20260502102830 | 72 | 36 | 0.0 | 0.0 | 0.00 | 0.00 | 0.00 | 30 | 1012.2 |
| 20260502102326 | 71 | 50 | 0.0 | 0.0 | 0.00 | 0.00 | 0.00 | 31 | 1012.1 |
| 20260502101824 | 72 | 50 | 0.0 | 0.0 | 0.00 | 0.00 | 0.00 | 31 | 1012.4 |
| 20260502101322 | 72 | 55 | 0.0 | 0.0 | 0.00 | 0.00 | 0.00 | 31 | 1012.4 |
| 20260502100820 | 73 | 50 | 0.0 | 0.0 | 0.00 | 0.00 | 0.00 | 29 | 1012.2 |
| 20260502100319 | 73 | 53 | 0.0 | 0.0 | 0.00 | 0.00 | 0.00 | 29 | 1012.2 |
| 20260502091253 | 74 | 333 | 0.0 | 1.0 | 0.00 | 0.00 | 0.00 | 28 | 1011.7 |
| 20260502090750 | 73 | 346 | 0.0 | 0.0 | 0.00 | 0.00 | 0.00 | 28 | 1011.9 |
| 20260502090246 | 73 | 33 | 0.0 | 0.0 | 0.00 | 0.00 | 0.00 | 29 | 1012.0 |
| 20260502071142 | 70 | 49 | 0.0 | 1.0 | 0.00 | 0.00 | 0.00 | 38 | 1011.4 |
| 20260502070640 | 71 | 33 | 0.0 | 0.0 | 0.00 | 0.00 | 0.00 | 39 | 1011.3 |
| 20260502070137 | 72 | 63 | 0.0 | 0.0 | 0.00 | 0.00 | 0.00 | 36 | 1011.1 |
| 20260502065635 | 72 | 338 | 0.0 | 0.0 | 0.00 | 0.00 | 0.00 | 34 | 1011.2 |
| 20260502065132 | 72 | 70 | 0.0 | 0.0 | 0.00 | 0.00 | 0.00 | 35 | 1011.3 |
| 20260502064631 | 72 | 81 | 0.0 | 0.0 | 0.00 | 0.00 | 0.00 | 34 | 1011.0 |
| 20260502064128 | 72 | 66 | 0.0 | 0.0 | 0.00 | 0.00 | 0.00 | 35 | 1011.1 |
| 20260502063626 | 73 | 77 | 0.0 | 0.0 | 0.00 | 0.00 | 0.00 | 37 | 1011.3 |
| 20260502063123 | 75 | 78 | 0.0 | 0.0 | 0.00 | 0.00 | 0.00 | 31 | 1011.1 |
| 20260502062620 | 75 | 162 | 0.0 | 0.0 | 0.00 | 0.00 | 0.00 | 29 | 1011.0 |
| 20260502062118 | 74 | 55 | 0.0 | 0.0 | 0.00 | 0.00 | 0.00 | 29 | 1011.0 |
| 20260502061616 | 74 | 95 | 0.0 | 0.0 | 0.00 | 0.00 | 0.00 | 31 | 1011.0 |
| 20260502061114 | 74 | 84 | 0.0 | 0.0 | 0.00 | 0.00 | 0.00 | 30 | 1010.7 |
| 20260502060613 | 73 | 115 | 0.0 | 0.0 | 0.00 | 0.00 | 0.00 | 30 | 1010.8 |
| 20260502060110 | 74 | 96 | 0.0 | 0.0 | 0.00 | 0.00 | 0.00 | 31 | 1010.9 |
| 20260502055608 | 74 | 105 | 0.0 | 0.0 | 0.00 | 0.00 | 0.00 | 30 | 1010.8 |
| 20260502055106 | 75 | 105 | 0.0 | 0.0 | 0.00 | 0.00 | 0.00 | 29 | 1010.6 |
| 20260502054605 | 76 | 116 | 0.0 | 0.0 | 0.00 | 0.00 | 0.00 | 29 | 1010.7 |
| 20260502054102 | 77 | 118 | 0.0 | 0.0 | 0.00 | 0.00 | 0.00 | 28 | 1010.6 |
| 20260502053558 | 76 | 109 | 0.0 | 0.0 | 0.00 | 0.00 | 0.00 | 28 | 1010.8 |
| 20260502053056 | 76 | 123 | 0.0 | 0.0 | 0.00 | 0.00 | 0.00 | 29 | 1010.6 |
| 20260502052554 | 76 | 120 | 0.0 | 0.0 | 0.00 | 0.00 | 0.00 | 28 | 1010.7 |
| 20260502052052 | 76 | 106 | 0.0 | 0.0 | 0.00 | 0.00 | 0.00 | 29 | 1010.6 |
| 20260502051550 | 76 | 117 | 0.0 | 0.0 | 0.00 | 0.00 | 0.00 | 29 | 1010.7 |
| 20260502051048 | 77 | 103 | 0.0 | 0.0 | 0.00 | 0.00 | 0.00 | 28 | 1010.6 |
| 20260502050543 | 77 | 104 | 0.0 | 0.0 | 0.00 | 0.00 | 0.00 | 28 | 1010.4 |
| 20260502050040 | 77 | 108 | 0.0 | 0.0 | 0.00 | 0.00 | 0.00 | 27 | 1010.5 |
| 20260502045537 | 76 | 102 | 0.0 | 0.0 | 0.00 | 0.00 | 0.00 | 28 | 1010.4 |
| 20260502045034 | 77 | 100 | 0.0 | 0.0 | 0.00 | 0.00 | 0.00 | 29 | 1010.5 |
| 20260502044531 | 77 | 107 | 0.0 | 0.0 | 0.00 | 0.00 | 0.00 | 28 | 1010.4 |
| 20260502044027 | 77 | 105 | 0.0 | 0.0 | 0.00 | 0.00 | 0.00 | 28 | 1010.5 |
| 20260502043525 | 77 | 102 | 0.0 | 0.0 | 0.00 | 0.00 | 0.00 | 29 | 1010.4 |
| 20260502043021 | 77 | 99 | 0.0 | 0.0 | 0.00 | 0.00 | 0.00 | 28 | 1010.3 |
| 20260502042516 | 77 | 99 | 0.0 | 0.0 | 0.00 | 0.00 | 0.00 | 28 | 1010.5 |
| 20260502042014 | 78 | 102 | 0.0 | 0.0 | 0.00 | 0.00 | 0.00 | 28 | 1010.2 |
| 20260502041512 | 78 | 103 | 0.0 | 0.0 | 0.00 | 0.00 | 0.00 | 27 | 1010.2 |
| 20260502041008 | 78 | 98 | 0.0 | 0.0 | 0.00 | 0.00 | 0.00 | 27 | 1010.2 |
| 20260502040505 | 79 | 97 | 0.0 | 0.0 | 0.00 | 0.00 | 0.00 | 27 | 1010.2 |
| 20260502040002 | 79 | 95 | 0.0 | 0.0 | 0.00 | 0.00 | 0.00 | 27 | 1010.0 |
| 20260502035457 | 79 | 96 | 0.0 | 0.0 | 0.00 | 0.00 | 0.00 | 27 | 1010.0 |
| 20260502034955 | 80 | 99 | 0.0 | 0.0 | 0.00 | 0.00 | 0.00 | 26 | 1010.0 |
| 20260502034454 | 80 | 102 | 0.0 | 0.0 | 0.00 | 0.00 | 0.00 | 26 | 1009.6 |
| 20260502033952 | 80 | 100 | 0.0 | 0.0 | 0.00 | 0.00 | 0.00 | 26 | 1009.9 |
| 20260502033449 | 81 | 108 | 0.0 | 0.0 | 0.00 | 0.00 | 0.00 | 25 | 1009.6 |
| 20260502032946 | 82 | 129 | 0.0 | 0.0 | 0.00 | 0.00 | 0.00 | 25 | 1009.6 |
| 20260502032442 | 82 | 132 | 0.0 | 0.0 | 0.00 | 0.00 | 0.00 | 24 | 1009.5 |
| 20260502031939 | 82 | 121 | 0.0 | 0.0 | 0.00 | 0.00 | 0.00 | 24 | 1009.5 |
| 20260502031438 | 82 | 142 | 0.0 | 0.0 | 0.00 | 0.00 | 0.00 | 24 | 1009.1 |
| 20260502030935 | 83 | 127 | 0.0 | 0.0 | 0.00 | 0.00 | 0.00 | 24 | 1009.4 |
| 20260502030433 | 83 | 129 | 0.0 | 0.0 | 0.00 | 0.00 | 0.00 | 24 | 1009.3 |
| 20260502025931 | 83 | 174 | 0.0 | 0.0 | 0.00 | 0.00 | 0.00 | 24 | 1009.4 |
| 20260502025428 | 84 | 128 | 0.0 | 0.0 | 0.00 | 0.00 | 0.00 | 24 | 1009.4 |
| 20260502024926 | 84 | 166 | 0.0 | 0.0 | 0.00 | 0.00 | 0.00 | 24 | 1009.1 |
| 20260502024424 | 84 | 191 | 0.0 | 0.0 | 0.00 | 0.00 | 0.00 | 23 | 1009.2 |
| 20260502023922 | 84 | 145 | 0.0 | 0.0 | 0.00 | 0.00 | 0.00 | 24 | 1009.1 |
| 20260502023419 | 84 | 207 | 0.0 | 0.0 | 0.00 | 0.00 | 0.00 | 24 | 1009.2 |
| 20260502022916 | 85 | 140 | 0.0 | 0.0 | 0.00 | 0.00 | 0.00 | 23 | 1009.1 |
| 20260502022412 | 85 | 155 | 0.0 | 0.0 | 0.00 | 0.00 | 0.00 | 23 | 1008.7 |
| 20260502021909 | 85 | 188 | 0.0 | 0.0 | 0.00 | 0.00 | 0.00 | 23 | 1008.9 |
| 20260502021406 | 85 | 181 | 0.0 | 0.0 | 0.00 | 0.00 | 0.00 | 23 | 1008.9 |
| 20260502020904 | 86 | 207 | 0.0 | 1.0 | 0.00 | 0.00 | 0.00 | 23 | 1008.8 |
| 20260502020402 | 86 | 196 | 0.0 | 3.0 | 0.00 | 0.00 | 0.00 | 22 | 1008.9 |
| 20260502015858 | 86 | 185 | 0.0 | 1.0 | 0.00 | 0.00 | 0.00 | 22 | 1008.9 |
| 20260502015355 | 86 | 193 | 0.0 | 1.0 | 0.00 | 0.00 | 0.00 | 22 | 1008.8 |
| 20260502014852 | 87 | 127 | 0.0 | 3.0 | 0.00 | 0.00 | 0.00 | 22 | 1008.7 |
| 20260502014349 | 87 | 246 | 0.0 | 1.0 | 0.00 | 0.00 | 0.00 | 21 | 1008.7 |
| 20260502013845 | 87 | 196 | 0.0 | 0.0 | 0.00 | 0.00 | 0.00 | 20 | 1008.5 |
| 20260502013341 | 87 | 179 | 0.0 | 2.0 | 0.00 | 0.00 | 0.00 | 21 | 1008.6 |
| 20260502012838 | 87 | 228 | 0.0 | 0.0 | 0.00 | 0.00 | 0.00 | 21 | 1008.7 |
| 20260502012336 | 88 | 210 | 0.0 | 1.0 | 0.00 | 0.00 | 0.00 | 22 | 1008.7 |
| 20260502011833 | 88 | 206 | 1.0 | 2.0 | 0.00 | 0.00 | 0.00 | 22 | 1008.6 |
| 20260502011329 | 88 | 179 | 1.0 | 2.0 | 0.00 | 0.00 | 0.00 | 22 | 1008.6 |
| 20260502010826 | 88 | 195 | 0.0 | 1.0 | 0.00 | 0.00 | 0.00 | 22 | 1008.7 |
| 20260502010323 | 89 | 181 | 0.0 | 1.0 | 0.00 | 0.00 | 0.00 | 21 | 1008.7 |
| 20260502005819 | 88 | 259 | 0.0 | 0.0 | 0.00 | 0.00 | 0.00 | 21 | 1008.6 |
| 20260502005318 | 88 | 235 | 0.0 | 0.0 | 0.00 | 0.00 | 0.00 | 22 | 1008.7 |
| 20260502004815 | 89 | 226 | 1.0 | 2.0 | 0.00 | 0.00 | 0.00 | 22 | 1008.8 |
| 20260502004310 | 88 | 191 | 0.0 | 0.0 | 0.00 | 0.00 | 0.00 | 22 | 1009.0 |
| 20260502003809 | 89 | 176 | 0.0 | 1.0 | 0.00 | 0.00 | 0.00 | 22 | 1008.8 |
| 20260502003305 | 89 | 96 | 0.0 | 1.0 | 0.00 | 0.00 | 0.00 | 22 | 1008.8 |
| 20260502002801 | 89 | 143 | 0.0 | 0.0 | 0.00 | 0.00 | 0.00 | 22 | 1008.9 |
| 20260502002259 | 88 | 103 | 0.0 | 2.0 | 0.00 | 0.00 | 0.00 | 23 | 1008.6 |
| 20260502001756 | 88 | 269 | 0.0 | 2.0 | 0.00 | 0.00 | 0.00 | 22 | 1008.8 |
| 20260502001254 | 89 | 251 | 0.0 | 1.0 | 0.00 | 0.00 | 0.00 | 23 | 1008.8 |
| 20260502000751 | 89 | 188 | 0.0 | 1.0 | 0.00 | 0.00 | 0.00 | 24 | 1008.9 |
| 20260502000249 | 90 | 149 | 0.0 | 1.0 | 0.00 | 0.00 | 0.00 | 23 | 1009.0 |
| 20260501235744 | 90 | 233 | 0.0 | 0.0 | 0.00 | 0.00 | 0.00 | 23 | 1008.9 |
| 20260501235241 | 89 | 84 | 0.0 | 0.0 | 0.00 | 0.00 | 0.00 | 24 | 1009.0 |
| 20260501234736 | 89 | 226 | 0.0 | 3.0 | 0.00 | 0.00 | 0.00 | 24 | 1009.3 |
| 20260501234233 | 89 | 247 | 2.0 | 3.0 | 0.00 | 0.00 | 0.00 | 24 | 1009.0 |
| 20260501233732 | 89 | 208 | 1.0 | 2.0 | 0.00 | 0.00 | 0.00 | 24 | 1008.9 |
| 20260501233229 | 89 | 247 | 4.0 | 6.0 | 0.00 | 0.00 | 0.00 | 24 | 1008.9 |
| 20260501232724 | 89 | 115 | 0.0 | 1.0 | 0.00 | 0.00 | 0.00 | 24 | 1009.1 |
| 20260501232222 | 88 | 246 | 1.0 | 3.0 | 0.00 | 0.00 | 0.00 | 25 | 1009.0 |
| 20260501231719 | 88 | 255 | 0.0 | 0.0 | 0.00 | 0.00 | 0.00 | 25 | 1009.3 |
| 20260501231217 | 88 | 205 | 0.0 | 1.0 | 0.00 | 0.00 | 0.00 | 25 | 1009.2 |
| 20260501230715 | 88 | 132 | 1.0 | 3.0 | 0.00 | 0.00 | 0.00 | 25 | 1009.2 |
| 20260501230214 | 88 | 189 | 1.0 | 6.0 | 0.00 | 0.00 | 0.00 | 25 | 1009.2 |
| 20260501225711 | 88 | 231 | 2.0 | 2.0 | 0.00 | 0.00 | 0.00 | 25 | 1009.2 |
| 20260501225208 | 88 | 199 | 1.0 | 3.0 | 0.00 | 0.00 | 0.00 | 26 | 1009.6 |
| 20260501224704 | 88 | 198 | 0.0 | 1.0 | 0.00 | 0.00 | 0.00 | 25 | 1009.4 |
| 20260501224201 | 89 | 290 | 0.0 | 2.0 | 0.00 | 0.00 | 0.00 | 25 | 1009.8 |
| 20260501223658 | 87 | 210 | 0.0 | 0.0 | 0.00 | 0.00 | 0.00 | 26 | 1009.4 |
| 20260501223154 | 87 | 104 | 0.0 | 1.0 | 0.00 | 0.00 | 0.00 | 26 | 1009.6 |
| 20260501222650 | 87 | 205 | 1.0 | 2.0 | 0.00 | 0.00 | 0.00 | 26 | 1009.6 |
| 20260501222148 | 87 | 240 | 0.0 | 1.0 | 0.00 | 0.00 | 0.00 | 25 | 1009.8 |
| 20260501221644 | 87 | 225 | 1.0 | 7.0 | 0.00 | 0.00 | 0.00 | 25 | 1009.9 |
| 20260501221141 | 88 | 141 | 0.0 | 0.0 | 0.00 | 0.00 | 0.00 | 24 | 1009.9 |
| 20260501220639 | 87 | 142 | 0.0 | 0.0 | 0.00 | 0.00 | 0.00 | 25 | 1009.9 |
| 20260501220136 | 87 | 213 | 1.0 | 2.0 | 0.00 | 0.00 | 0.00 | 25 | 1010.0 |
| 20260501215633 | 88 | 144 | 0.0 | 2.0 | 0.00 | 0.00 | 0.00 | 23 | 1010.3 |
| 20260501215128 | 87 | 115 | 0.0 | 3.0 | 0.00 | 0.00 | 0.00 | 24 | 1010.2 |
| 20260501214623 | 86 | 86 | 0.0 | 1.0 | 0.00 | 0.00 | 0.00 | 23 | 1010.4 |
| 20260501214119 | 87 | 222 | 0.0 | 1.0 | 0.00 | 0.00 | 0.00 | 23 | 1010.5 |
| 20260501213616 | 87 | 335 | 0.0 | 0.0 | 0.00 | 0.00 | 0.00 | 22 | 1010.6 |
| 20260501213112 | 87 | 269 | 0.0 | 1.0 | 0.00 | 0.00 | 0.00 | 20 | 1010.8 |
| 20260501212609 | 86 | 218 | 0.0 | 2.0 | 0.00 | 0.00 | 0.00 | 22 | 1011.1 |
| 20260501212105 | 86 | 197 | 0.0 | 2.0 | 0.00 | 0.00 | 0.00 | 24 | 1010.8 |
| 20260501211602 | 86 | 78 | 0.0 | 0.0 | 0.00 | 0.00 | 0.00 | 23 | 1011.1 |
| 20260501211100 | 87 | 327 | 1.0 | 2.0 | 0.00 | 0.00 | 0.00 | 23 | 1011.0 |
| 20260501210556 | 87 | 202 | 1.0 | 3.0 | 0.00 | 0.00 | 0.00 | 25 | 1011.0 |
| 20260501210053 | 86 | 155 | 0.0 | 1.0 | 0.00 | 0.00 | 0.00 | 26 | 1011.1 |
| 20260501205550 | 84 | 287 | 0.0 | 1.0 | 0.00 | 0.00 | 0.00 | 27 | 1011.3 |
| 20260501205048 | 86 | 218 | 1.0 | 3.0 | 0.00 | 0.00 | 0.00 | 27 | 1011.2 |
| 20260501204543 | 86 | 156 | 0.0 | 0.0 | 0.00 | 0.00 | 0.00 | 26 | 1011.2 |
| 20260501204039 | 85 | 340 | 0.0 | 1.0 | 0.00 | 0.00 | 0.00 | 26 | 1011.1 |
| 20260501203536 | 85 | 290 | 0.0 | 2.0 | 0.00 | 0.00 | 0.00 | 25 | 1011.4 |
| 20260501203034 | 85 | 227 | 0.0 | 1.0 | 0.00 | 0.00 | 0.00 | 26 | 1011.3 |
| 20260501202531 | 85 | 62 | 0.0 | 1.0 | 0.00 | 0.00 | 0.00 | 26 | 1011.6 |
| 20260501202027 | 84 | 248 | 0.0 | 2.0 | 0.00 | 0.00 | 0.00 | 26 | 1011.8 |
| 20260501201525 | 84 | 231 | 1.0 | 2.0 | 0.00 | 0.00 | 0.00 | 27 | 1011.7 |
| 20260501201021 | 84 | 222 | 2.0 | 3.0 | 0.00 | 0.00 | 0.00 | 27 | 1011.6 |
| 20260501200518 | 86 | 346 | 0.0 | 1.0 | 0.00 | 0.00 | 0.00 | 27 | 1011.6 |
| 20260501200016 | 86 | 335 | 0.0 | 0.0 | 0.00 | 0.00 | 0.00 | 27 | 1011.9 |
| 20260501195513 | 85 | 106 | 0.0 | 0.0 | 0.00 | 0.00 | 0.00 | 27 | 1011.9 |
| 20260501195008 | 84 | 122 | 0.0 | 3.0 | 0.00 | 0.00 | 0.00 | 29 | 1011.8 |
| 20260501194504 | 83 | 151 | 0.0 | 5.0 | 0.00 | 0.00 | 0.00 | 29 | 1011.9 |
| 20260501194000 | 84 | 207 | 1.0 | 3.0 | 0.00 | 0.00 | 0.00 | 28 | 1012.0 |
| 20260501193458 | 82 | 46 | 0.0 | 0.0 | 0.00 | 0.00 | 0.00 | 28 | 1012.0 |
| 20260501192955 | 83 | 234 | 1.0 | 2.0 | 0.00 | 0.00 | 0.00 | 29 | 1012.1 |
| 20260501192453 | 82 | 97 | 0.0 | 0.0 | 0.00 | 0.00 | 0.00 | 28 | 1012.2 |
| 20260501191950 | 83 | 209 | 0.0 | 8.0 | 0.00 | 0.00 | 0.00 | 29 | 1012.1 |
| 20260501191447 | 83 | 178 | 0.0 | 1.0 | 0.00 | 0.00 | 0.00 | 29 | 1012.3 |
| 20260501190944 | 82 | 110 | 0.0 | 0.0 | 0.00 | 0.00 | 0.00 | 30 | 1012.4 |
| 20260501190440 | 83 | 142 | 0.0 | 2.0 | 0.00 | 0.00 | 0.00 | 30 | 1012.4 |
| 20260501185935 | 84 | 196 | 0.0 | 1.0 | 0.00 | 0.00 | 0.00 | 29 | 1012.4 |
| 20260501185431 | 82 | 195 | 0.0 | 5.0 | 0.00 | 0.00 | 0.00 | 30 | 1012.8 |
| 20260501184927 | 82 | 116 | 0.0 | 0.0 | 0.00 | 0.00 | 0.00 | 30 | 1012.9 |
| 20260501184425 | 82 | 204 | 0.0 | 0.0 | 0.00 | 0.00 | 0.00 | 30 | 1012.7 |
| 20260501183919 | 82 | 131 | 0.0 | 0.0 | 0.00 | 0.00 | 0.00 | 30 | 1013.0 |
| 20260501183416 | 82 | 98 | 0.0 | 1.0 | 0.00 | 0.00 | 0.00 | 30 | 1013.2 |
| 20260501182913 | 82 | 137 | 0.0 | 3.0 | 0.00 | 0.00 | 0.00 | 30 | 1013.2 |
| 20260501182409 | 82 | 190 | 0.0 | 1.0 | 0.00 | 0.00 | 0.00 | 31 | 1013.0 |
| 20260501181906 | 81 | 220 | 0.0 | 0.0 | 0.00 | 0.00 | 0.00 | 31 | 1013.0 |
| 20260501181403 | 81 | 224 | 0.0 | 0.0 | 0.00 | 0.00 | 0.00 | 31 | 1013.1 |
| 20260501180900 | 83 | 132 | 0.0 | 0.0 | 0.00 | 0.00 | 0.00 | 30 | 1013.4 |
| 20260501180357 | 83 | 118 | 0.0 | 0.0 | 0.00 | 0.00 | 0.00 | 31 | 1013.3 |
| 20260501175854 | 82 | 73 | 0.0 | 0.0 | 0.00 | 0.00 | 0.00 | 31 | 1013.5 |
| 20260501175351 | 81 | 6 | 0.0 | 0.0 | 0.00 | 0.00 | 0.00 | 32 | 1013.3 |
| 20260501174847 | 80 | 235 | 0.0 | 0.0 | 0.00 | 0.00 | 0.00 | 33 | 1013.4 |
| 20260501174345 | 80 | 89 | 0.0 | 0.0 | 0.00 | 0.00 | 0.00 | 33 | 1013.5 |
| 20260501173843 | 79 | 5 | 0.0 | 0.0 | 0.00 | 0.00 | 0.00 | 34 | 1013.5 |
| 20260501173340 | 80 | 85 | 0.0 | 0.0 | 0.00 | 0.00 | 0.00 | 34 | 1013.5 |
| 20260501172836 | 79 | 188 | 0.0 | 2.0 | 0.00 | 0.00 | 0.00 | 35 | 1013.6 |
| 20260501172331 | 80 | 164 | 0.0 | 0.0 | 0.00 | 0.00 | 0.00 | 34 | 1013.7 |
| 20260501171826 | 80 | 73 | 0.0 | 0.0 | 0.00 | 0.00 | 0.00 | 34 | 1013.6 |
| 20260501171323 | 79 | 44 | 0.0 | 0.0 | 0.00 | 0.00 | 0.00 | 34 | 1013.6 |
| 20260501170820 | 78 | 190 | 0.0 | 2.0 | 0.00 | 0.00 | 0.00 | 37 | 1013.5 |
| 20260501170317 | 79 | 309 | 0.0 | 0.0 | 0.00 | 0.00 | 0.00 | 36 | 1013.4 |
| 20260501165814 | 78 | 76 | 0.0 | 0.0 | 0.00 | 0.00 | 0.00 | 37 | 1013.9 |
| 20260501165312 | 77 | 194 | 0.0 | 1.0 | 0.00 | 0.00 | 0.00 | 37 | 1013.5 |
| 20260501164810 | 78 | 226 | 0.0 | 1.0 | 0.00 | 0.00 | 0.00 | 37 | 1013.8 |
| 20260501164308 | 78 | 145 | 0.0 | 0.0 | 0.00 | 0.00 | 0.00 | 36 | 1013.6 |
| 20260501163803 | 77 | 75 | 0.0 | 0.0 | 0.00 | 0.00 | 0.00 | 37 | 1013.4 |
| 20260501163300 | 76 | 243 | 0.0 | 0.0 | 0.00 | 0.00 | 0.00 | 38 | 1013.6 |
| 20260501162756 | 77 | 199 | 0.0 | 2.0 | 0.00 | 0.00 | 0.00 | 37 | 1013.6 |
| 20260501162253 | 76 | 161 | 0.0 | 1.0 | 0.00 | 0.00 | 0.00 | 38 | 1013.6 |
| 20260501161749 | 76 | 219 | 0.0 | 1.0 | 0.00 | 0.00 | 0.00 | 38 | 1013.6 |
| 20260501161247 | 75 | 214 | 0.0 | 2.0 | 0.00 | 0.00 | 0.00 | 38 | 1013.9 |
| 20260501160743 | 76 | 234 | 0.0 | 1.0 | 0.00 | 0.00 | 0.00 | 38 | 1013.6 |
| 20260501160240 | 75 | 101 | 0.0 | 0.0 | 0.00 | 0.00 | 0.00 | 38 | 1013.4 |
| 20260501155738 | 75 | 235 | 0.0 | 0.0 | 0.00 | 0.00 | 0.00 | 39 | 1013.6 |
| 20260501155234 | 75 | 123 | 0.0 | 0.0 | 0.00 | 0.00 | 0.00 | 38 | 1013.5 |
| 20260501154732 | 75 | 224 | 0.0 | 2.0 | 0.00 | 0.00 | 0.00 | 39 | 1013.5 |
| 20260501154228 | 75 | 225 | 0.0 | 2.0 | 0.00 | 0.00 | 0.00 | 39 | 1013.4 |
| 20260501153726 | 75 | 171 | 0.0 | 0.0 | 0.00 | 0.00 | 0.00 | 39 | 1013.4 |
| 20260501153223 | 75 | 124 | 0.0 | 2.0 | 0.00 | 0.00 | 0.00 | 39 | 1013.4 |
| 20260501152719 | 75 | 141 | 0.0 | 0.0 | 0.00 | 0.00 | 0.00 | 39 | 1013.3 |
| 20260501152216 | 76 | 142 | 0.0 | 0.0 | 0.00 | 0.00 | 0.00 | 39 | 1013.3 |